createdAt,value
2022-08-31T00:03:57.772Z,12.42
2022-08-31T00:18:58.967Z,12.27
2022-08-31T00:34:01.816Z,12.29
2022-08-31T00:49:02.205Z,12.16
2022-08-31T01:04:02.377Z,11.96
2022-08-31T01:19:02.573Z,11.86
2022-08-31T01:34:02.731Z,11.55
2022-08-31T01:49:03.926Z,11.49
2022-08-31T02:04:04.220Z,11.42
2022-08-31T02:19:04.501Z,11.44
2022-08-31T02:34:05.216Z,11.22
2022-08-31T02:49:05.722Z,11.09
2022-08-31T03:04:06.022Z,10.94
2022-08-31T03:19:07.538Z,10.86
2022-08-31T03:34:07.723Z,10.63
2022-08-31T03:49:07.893Z,10.40
2022-08-31T04:04:08.173Z,10.05
2022-08-31T04:19:08.405Z,10.15
2022-08-31T04:34:08.583Z,10.01
2022-08-31T04:49:09.372Z,10.25
2022-08-31T05:04:09.913Z,10.40
2022-08-31T05:19:10.239Z,10.82
2022-08-31T05:34:10.463Z,12.19
2022-08-31T05:49:11.578Z,13.75
2022-08-31T06:04:11.493Z,15.09
2022-08-31T06:19:11.638Z,16.50
2022-08-31T06:34:11.705Z,17.75
2022-08-31T06:49:11.774Z,18.48
2022-08-31T07:04:12.413Z,18.87
2022-08-31T07:19:12.986Z,19.47
2022-08-31T07:34:13.665Z,19.94
2022-08-31T07:49:13.993Z,20.48
2022-08-31T08:04:15.137Z,20.58
2022-08-31T08:19:15.464Z,21.29
2022-08-31T08:34:17.348Z,21.77
2022-08-31T08:49:19.231Z,22.27
2022-08-31T09:04:19.398Z,22.37
2022-08-31T09:19:19.494Z,22.45
2022-08-31T09:34:21.368Z,23.31
2022-08-31T09:49:22.642Z,23.28
2022-08-31T10:04:24.514Z,23.98
2022-08-31T10:19:26.843Z,23.97
2022-08-31T10:34:28.726Z,24.00
2022-08-31T10:49:30.586Z,23.90
2022-08-31T11:04:32.584Z,24.96
2022-08-31T11:19:33.057Z,25.13
2022-08-31T11:34:33.350Z,25.67
2022-08-31T11:49:35.515Z,24.62
2022-08-31T12:04:35.603Z,23.79
2022-08-31T12:19:38.318Z,23.32
2022-08-31T12:34:39.697Z,23.90
2022-08-31T12:49:41.807Z,24.10
2022-08-31T13:04:43.540Z,24.57
2022-08-31T13:19:44.887Z,24.53
2022-08-31T13:34:46.212Z,24.62
2022-08-31T13:49:46.504Z,25.10
2022-08-31T14:04:48.375Z,25.98
2022-08-31T14:19:49.155Z,26.60
2022-08-31T14:34:51.009Z,26.94
2022-08-31T14:49:52.481Z,27.03
2022-08-31T15:04:52.851Z,26.60
2022-08-31T15:19:53.929Z,24.68
2022-08-31T15:34:55.328Z,23.69
2022-08-31T15:49:57.171Z,23.85
2022-08-31T16:04:58.025Z,23.97
2022-08-31T16:19:59.866Z,22.90
2022-08-31T16:35:00.699Z,22.10
2022-08-31T16:50:03.050Z,21.54
2022-08-31T17:05:36.807Z,21.03
2022-08-31T17:20:58.165Z,20.52
2022-08-31T17:35:58.243Z,19.81
2022-08-31T17:51:00.122Z,19.32
2022-08-31T18:06:01.205Z,18.73
2022-08-31T18:21:03.946Z,18.35
2022-08-31T18:36:04.033Z,17.62
2022-08-31T18:51:05.917Z,17.18
2022-08-31T19:06:21.678Z,16.42
2022-08-31T19:21:22.378Z,16.04
2022-08-31T19:36:27.592Z,15.47
2022-08-31T19:51:34.958Z,15.19
2022-08-31T20:06:37.362Z,15.14
2022-08-31T20:21:37.996Z,14.92
2022-08-31T20:36:39.893Z,14.96
2022-08-31T20:51:41.312Z,14.83
2022-08-31T21:06:43.063Z,14.84
2022-08-31T21:21:44.113Z,14.52
2022-08-31T21:36:45.485Z,14.32
2022-08-31T21:51:46.096Z,14.29
2022-08-31T22:06:46.722Z,14.27
2022-08-31T22:22:16.937Z,14.20
2022-08-31T22:37:47.366Z,14.09
2022-08-31T22:52:50.365Z,14.25
2022-08-31T23:07:51.402Z,14.21
2022-08-31T23:22:53.260Z,14.09
2022-08-31T23:38:19.659Z,14.04
2022-08-31T23:53:23.221Z,13.91
